sensor_id;sensor_type;location;lat;lon;timestamp;P1;durP1;ratioP1;P2;durP2;ratioP2
39848;SDS011;25518;47.878;15.914;2023-08-06T00:02:47;1.70;;;0.15;;
39848;SDS011;25518;47.878;15.914;2023-08-06T00:05:37;0.00;;;0.00;;
39848;SDS011;25518;47.878;15.914;2023-08-06T00:08:27;0.10;;;0.00;;
39848;SDS011;25518;47.878;15.914;2023-08-06T00:11:16;0.85;;;0.10;;
39848;SDS011;25518;47.878;15.914;2023-08-06T00:14:06;0.00;;;0.00;;
39848;SDS011;25518;47.878;15.914;2023-08-06T00:16:56;0.20;;;0.10;;
39848;SDS011;25518;47.878;15.914;2023-08-06T00:19:46;0.60;;;0.00;;
39848;SDS011;25518;47.878;15.914;2023-08-06T00:22:37;0.17;;;0.08;;
39848;SDS011;25518;47.878;15.914;2023-08-06T00:25:27;0.00;;;0.00;;
39848;SDS011;25518;47.878;15.914;2023-08-06T00:28:17;0.00;;;0.00;;
39848;SDS011;25518;47.878;15.914;2023-08-06T00:31:07;0.05;;;0.00;;
39848;SDS011;25518;47.878;15.914;2023-08-06T00:33:56;0.10;;;0.00;;
39848;SDS011;25518;47.878;15.914;2023-08-06T00:36:46;0.10;;;0.00;;
39848;SDS011;25518;47.878;15.914;2023-08-06T00:39:36;0.20;;;0.10;;
39848;SDS011;25518;47.878;15.914;2023-08-06T00:42:26;0.03;;;0.00;;
39848;SDS011;25518;47.878;15.914;2023-08-06T00:45:16;1.30;;;0.10;;
39848;SDS011;25518;47.878;15.914;2023-08-06T00:48:05;0.00;;;0.00;;
39848;SDS011;25518;47.878;15.914;2023-08-06T00:50:56;0.10;;;0.00;;
39848;SDS011;25518;47.878;15.914;2023-08-06T00:53:46;0.00;;;0.00;;
39848;SDS011;25518;47.878;15.914;2023-08-06T00:56:36;0.00;;;0.00;;
39848;SDS011;25518;47.878;15.914;2023-08-06T00:59:26;1.30;;;0.10;;
39848;SDS011;25518;47.878;15.914;2023-08-06T01:02:16;0.22;;;0.10;;
39848;SDS011;25518;47.878;15.914;2023-08-06T01:05:06;0.00;;;0.00;;
39848;SDS011;25518;47.878;15.914;2023-08-06T01:14:06;0.00;;;0.00;;
39848;SDS011;25518;47.878;15.914;2023-08-06T01:17:04;0.08;;;0.00;;
39848;SDS011;25518;47.878;15.914;2023-08-06T01:19:54;0.00;;;0.00;;
39848;SDS011;25518;47.878;15.914;2023-08-06T01:22:44;0.00;;;0.00;;
39848;SDS011;25518;47.878;15.914;2023-08-06T01:25:34;0.20;;;0.10;;
39848;SDS011;25518;47.878;15.914;2023-08-06T01:28:52;0.00;;;0.00;;
39848;SDS011;25518;47.878;15.914;2023-08-06T01:31:46;0.13;;;0.05;;
39848;SDS011;25518;47.878;15.914;2023-08-06T01:34:40;0.30;;;0.00;;
39848;SDS011;25518;47.878;15.914;2023-08-06T01:37:32;0.00;;;0.00;;
39848;SDS011;25518;47.878;15.914;2023-08-06T01:40:22;0.15;;;0.10;;
39848;SDS011;25518;47.878;15.914;2023-08-06T01:43:14;0.00;;;0.00;;
39848;SDS011;25518;47.878;15.914;2023-08-06T01:46:03;0.50;;;0.10;;
39848;SDS011;25518;47.878;15.914;2023-08-06T01:48:53;0.03;;;0.00;;
39848;SDS011;25518;47.878;15.914;2023-08-06T01:51:42;0.60;;;0.50;;
39848;SDS011;25518;47.878;15.914;2023-08-06T01:54:32;0.00;;;0.00;;
39848;SDS011;25518;47.878;15.914;2023-08-06T01:57:22;0.05;;;0.00;;
39848;SDS011;25518;47.878;15.914;2023-08-06T02:00:12;0.25;;;0.05;;
39848;SDS011;25518;47.878;15.914;2023-08-06T02:03:02;1.30;;;0.00;;
39848;SDS011;25518;47.878;15.914;2023-08-06T02:05:51;0.10;;;0.00;;
39848;SDS011;25518;47.878;15.914;2023-08-06T02:08:41;1.67;;;0.10;;
39848;SDS011;25518;47.878;15.914;2023-08-06T02:11:30;0.00;;;0.00;;
39848;SDS011;25518;47.878;15.914;2023-08-06T02:14:20;0.30;;;0.10;;
39848;SDS011;25518;47.878;15.914;2023-08-06T02:17:09;0.10;;;0.00;;
39848;SDS011;25518;47.878;15.914;2023-08-06T02:19:59;0.30;;;0.10;;
39848;SDS011;25518;47.878;15.914;2023-08-06T02:22:49;1.10;;;0.10;;
39848;SDS011;25518;47.878;15.914;2023-08-06T02:25:39;0.20;;;0.10;;
39848;SDS011;25518;47.878;15.914;2023-08-06T02:28:29;0.10;;;0.00;;
39848;SDS011;25518;47.878;15.914;2023-08-06T02:31:19;0.38;;;0.20;;
39848;SDS011;25518;47.878;15.914;2023-08-06T02:34:08;0.30;;;0.10;;
39848;SDS011;25518;47.878;15.914;2023-08-06T02:36:58;0.50;;;0.20;;
39848;SDS011;25518;47.878;15.914;2023-08-06T02:39:48;0.20;;;0.13;;
39848;SDS011;25518;47.878;15.914;2023-08-06T02:42:37;0.50;;;0.28;;
39848;SDS011;25518;47.878;15.914;2023-08-06T02:45:28;0.30;;;0.28;;
39848;SDS011;25518;47.878;15.914;2023-08-06T02:48:18;0.10;;;0.10;;
39848;SDS011;25518;47.878;15.914;2023-08-06T02:51:07;0.90;;;0.40;;
39848;SDS011;25518;47.878;15.914;2023-08-06T02:53:57;0.80;;;0.30;;
39848;SDS011;25518;47.878;15.914;2023-08-06T02:56:46;0.60;;;0.30;;
39848;SDS011;25518;47.878;15.914;2023-08-06T02:59:36;1.48;;;0.30;;
39848;SDS011;25518;47.878;15.914;2023-08-06T03:19:21;0.98;;;0.47;;
39848;SDS011;25518;47.878;15.914;2023-08-06T03:22:10;0.55;;;0.40;;
39848;SDS011;25518;47.878;15.914;2023-08-06T03:25:00;0.40;;;0.20;;
39848;SDS011;25518;47.878;15.914;2023-08-06T03:27:50;2.85;;;0.30;;
39848;SDS011;25518;47.878;15.914;2023-08-06T03:30:39;3.10;;;0.40;;
39848;SDS011;25518;47.878;15.914;2023-08-06T03:33:29;0.50;;;0.28;;
39848;SDS011;25518;47.878;15.914;2023-08-06T03:36:20;0.80;;;0.40;;
39848;SDS011;25518;47.878;15.914;2023-08-06T03:39:09;0.57;;;0.40;;
39848;SDS011;25518;47.878;15.914;2023-08-06T03:41:59;2.50;;;0.40;;
39848;SDS011;25518;47.878;15.914;2023-08-06T03:44:49;1.45;;;0.55;;
39848;SDS011;25518;47.878;15.914;2023-08-06T03:47:38;0.63;;;0.30;;
39848;SDS011;25518;47.878;15.914;2023-08-06T03:50:28;1.00;;;0.50;;
39848;SDS011;25518;47.878;15.914;2023-08-06T03:53:18;1.00;;;0.40;;
39848;SDS011;25518;47.878;15.914;2023-08-06T03:56:08;0.85;;;0.40;;
39848;SDS011;25518;47.878;15.914;2023-08-06T03:58:57;1.40;;;0.55;;
39848;SDS011;25518;47.878;15.914;2023-08-06T04:01:47;0.80;;;0.40;;
39848;SDS011;25518;47.878;15.914;2023-08-06T04:04:36;1.17;;;0.60;;
39848;SDS011;25518;47.878;15.914;2023-08-06T04:07:26;0.88;;;0.50;;
39848;SDS011;25518;47.878;15.914;2023-08-06T04:10:16;4.68;;;0.60;;
39848;SDS011;25518;47.878;15.914;2023-08-06T04:13:06;0.80;;;0.47;;
39848;SDS011;25518;47.878;15.914;2023-08-06T04:16:00;2.63;;;0.77;;
39848;SDS011;25518;47.878;15.914;2023-08-06T04:18:51;1.83;;;0.50;;
39848;SDS011;25518;47.878;15.914;2023-08-06T04:21:42;0.73;;;0.50;;
39848;SDS011;25518;47.878;15.914;2023-08-06T04:24:32;0.67;;;0.40;;
39848;SDS011;25518;47.878;15.914;2023-08-06T04:27:21;1.37;;;0.70;;
39848;SDS011;25518;47.878;15.914;2023-08-06T04:30:11;1.13;;;0.60;;
39848;SDS011;25518;47.878;15.914;2023-08-06T04:33:01;3.03;;;0.70;;
39848;SDS011;25518;47.878;15.914;2023-08-06T04:35:54;0.98;;;0.35;;
39848;SDS011;25518;47.878;15.914;2023-08-06T04:38:44;0.93;;;0.43;;
39848;SDS011;25518;47.878;15.914;2023-08-06T04:41:36;1.30;;;0.70;;
39848;SDS011;25518;47.878;15.914;2023-08-06T04:44:25;0.85;;;0.40;;
39848;SDS011;25518;47.878;15.914;2023-08-06T04:47:15;1.67;;;0.82;;
39848;SDS011;25518;47.878;15.914;2023-08-06T04:50:05;1.42;;;0.70;;
39848;SDS011;25518;47.878;15.914;2023-08-06T04:52:55;0.73;;;0.50;;
39848;SDS011;25518;47.878;15.914;2023-08-06T04:55:45;1.85;;;0.57;;
39848;SDS011;25518;47.878;15.914;2023-08-06T04:58:35;1.02;;;0.60;;
39848;SDS011;25518;47.878;15.914;2023-08-06T05:01:24;1.15;;;0.60;;
39848;SDS011;25518;47.878;15.914;2023-08-06T05:04:14;1.33;;;0.55;;
39848;SDS011;25518;47.878;15.914;2023-08-06T05:07:05;1.30;;;0.60;;
39848;SDS011;25518;47.878;15.914;2023-08-06T05:09:55;1.27;;;0.70;;
39848;SDS011;25518;47.878;15.914;2023-08-06T05:12:45;2.03;;;0.60;;
39848;SDS011;25518;47.878;15.914;2023-08-06T05:15:34;1.30;;;0.57;;
39848;SDS011;25518;47.878;15.914;2023-08-06T05:18:24;1.10;;;0.80;;
39848;SDS011;25518;47.878;15.914;2023-08-06T05:21:14;1.17;;;0.70;;
39848;SDS011;25518;47.878;15.914;2023-08-06T05:24:05;1.83;;;0.70;;
39848;SDS011;25518;47.878;15.914;2023-08-06T05:26:54;1.75;;;0.70;;
39848;SDS011;25518;47.878;15.914;2023-08-06T05:29:44;1.42;;;0.70;;
39848;SDS011;25518;47.878;15.914;2023-08-06T05:32:34;1.05;;;0.45;;
39848;SDS011;25518;47.878;15.914;2023-08-06T05:35:24;0.65;;;0.47;;
39848;SDS011;25518;47.878;15.914;2023-08-06T05:38:13;1.33;;;0.68;;
39848;SDS011;25518;47.878;15.914;2023-08-06T05:41:03;0.60;;;0.40;;
39848;SDS011;25518;47.878;15.914;2023-08-06T05:43:53;0.70;;;0.45;;
39848;SDS011;25518;47.878;15.914;2023-08-06T05:46:42;1.10;;;0.60;;
39848;SDS011;25518;47.878;15.914;2023-08-06T05:49:32;0.70;;;0.40;;
39848;SDS011;25518;47.878;15.914;2023-08-06T05:52:21;0.90;;;0.60;;
39848;SDS011;25518;47.878;15.914;2023-08-06T05:55:11;1.00;;;0.60;;
39848;SDS011;25518;47.878;15.914;2023-08-06T05:58:00;0.77;;;0.43;;
39848;SDS011;25518;47.878;15.914;2023-08-06T06:00:50;1.92;;;0.70;;
39848;SDS011;25518;47.878;15.914;2023-08-06T06:03:41;0.68;;;0.43;;
39848;SDS011;25518;47.878;15.914;2023-08-06T06:06:31;0.55;;;0.35;;
39848;SDS011;25518;47.878;15.914;2023-08-06T06:09:20;0.60;;;0.30;;
39848;SDS011;25518;47.878;15.914;2023-08-06T06:12:10;0.70;;;0.40;;
39848;SDS011;25518;47.878;15.914;2023-08-06T06:15:00;0.47;;;0.30;;
39848;SDS011;25518;47.878;15.914;2023-08-06T06:17:50;0.80;;;0.40;;
39848;SDS011;25518;47.878;15.914;2023-08-06T06:20:39;0.80;;;0.40;;
39848;SDS011;25518;47.878;15.914;2023-08-06T06:23:29;0.65;;;0.40;;
39848;SDS011;25518;47.878;15.914;2023-08-06T06:26:19;0.53;;;0.40;;
39848;SDS011;25518;47.878;15.914;2023-08-06T06:29:08;1.10;;;0.60;;
39848;SDS011;25518;47.878;15.914;2023-08-06T06:31:58;0.75;;;0.55;;
39848;SDS011;25518;47.878;15.914;2023-08-06T06:34:47;0.75;;;0.55;;
39848;SDS011;25518;47.878;15.914;2023-08-06T06:37:37;0.85;;;0.55;;
39848;SDS011;25518;47.878;15.914;2023-08-06T06:40:27;0.57;;;0.45;;
39848;SDS011;25518;47.878;15.914;2023-08-06T06:43:17;0.80;;;0.40;;
39848;SDS011;25518;47.878;15.914;2023-08-06T06:46:06;0.20;;;0.20;;
39848;SDS011;25518;47.878;15.914;2023-08-06T06:48:56;0.60;;;0.40;;
39848;SDS011;25518;47.878;15.914;2023-08-06T06:51:46;0.65;;;0.40;;
39848;SDS011;25518;47.878;15.914;2023-08-06T06:54:35;0.82;;;0.50;;
39848;SDS011;25518;47.878;15.914;2023-08-06T06:57:25;1.13;;;0.60;;
39848;SDS011;25518;47.878;15.914;2023-08-06T07:00:14;0.80;;;0.60;;
39848;SDS011;25518;47.878;15.914;2023-08-06T07:03:04;1.57;;;0.63;;
39848;SDS011;25518;47.878;15.914;2023-08-06T07:05:56;0.98;;;0.50;;
39848;SDS011;25518;47.878;15.914;2023-08-06T07:08:48;1.48;;;0.70;;
39848;SDS011;25518;47.878;15.914;2023-08-06T07:11:38;1.02;;;0.60;;
39848;SDS011;25518;47.878;15.914;2023-08-06T07:14:28;1.20;;;0.70;;
39848;SDS011;25518;47.878;15.914;2023-08-06T07:17:18;1.10;;;0.75;;
39848;SDS011;25518;47.878;15.914;2023-08-06T07:20:08;1.98;;;0.90;;
39848;SDS011;25518;47.878;15.914;2023-08-06T07:22:58;1.30;;;0.60;;
39848;SDS011;25518;47.878;15.914;2023-08-06T07:25:48;1.60;;;0.77;;
39848;SDS011;25518;47.878;15.914;2023-08-06T07:28:38;1.35;;;0.70;;
39848;SDS011;25518;47.878;15.914;2023-08-06T07:31:27;1.25;;;0.50;;
39848;SDS011;25518;47.878;15.914;2023-08-06T07:34:17;1.15;;;0.63;;
39848;SDS011;25518;47.878;15.914;2023-08-06T07:37:07;1.50;;;0.90;;
39848;SDS011;25518;47.878;15.914;2023-08-06T07:39:56;1.75;;;0.90;;
39848;SDS011;25518;47.878;15.914;2023-08-06T07:42:46;2.63;;;1.00;;
39848;SDS011;25518;47.878;15.914;2023-08-06T07:45:36;4.68;;;0.80;;
39848;SDS011;25518;47.878;15.914;2023-08-06T07:48:26;1.08;;;0.70;;
39848;SDS011;25518;47.878;15.914;2023-08-06T07:51:16;1.85;;;1.10;;
39848;SDS011;25518;47.878;15.914;2023-08-06T07:54:06;1.48;;;0.95;;
39848;SDS011;25518;47.878;15.914;2023-08-06T07:56:56;3.13;;;1.20;;
39848;SDS011;25518;47.878;15.914;2023-08-06T07:59:46;1.60;;;0.90;;
39848;SDS011;25518;47.878;15.914;2023-08-06T08:02:36;1.87;;;1.00;;
39848;SDS011;25518;47.878;15.914;2023-08-06T08:05:25;2.13;;;1.30;;
39848;SDS011;25518;47.878;15.914;2023-08-06T08:08:15;2.05;;;1.10;;
39848;SDS011;25518;47.878;15.914;2023-08-06T08:11:05;2.28;;;1.00;;
39848;SDS011;25518;47.878;15.914;2023-08-06T08:13:56;1.70;;;0.80;;
39848;SDS011;25518;47.878;15.914;2023-08-06T08:16:46;1.08;;;0.70;;
39848;SDS011;25518;47.878;15.914;2023-08-06T08:19:36;2.90;;;0.93;;
39848;SDS011;25518;47.878;15.914;2023-08-06T08:22:25;1.75;;;0.77;;
39848;SDS011;25518;47.878;15.914;2023-08-06T08:25:15;0.98;;;0.60;;
39848;SDS011;25518;47.878;15.914;2023-08-06T08:28:05;1.67;;;1.10;;
39848;SDS011;25518;47.878;15.914;2023-08-06T08:30:55;1.40;;;0.90;;
39848;SDS011;25518;47.878;15.914;2023-08-06T08:33:45;1.75;;;0.85;;
39848;SDS011;25518;47.878;15.914;2023-08-06T08:36:35;1.80;;;0.88;;
39848;SDS011;25518;47.878;15.914;2023-08-06T08:39:25;1.57;;;0.90;;
39848;SDS011;25518;47.878;15.914;2023-08-06T08:42:14;1.98;;;1.02;;
39848;SDS011;25518;47.878;15.914;2023-08-06T08:45:06;2.92;;;1.30;;
39848;SDS011;25518;47.878;15.914;2023-08-06T08:48:00;1.98;;;0.80;;
39848;SDS011;25518;47.878;15.914;2023-08-06T08:50:50;1.38;;;0.73;;
39848;SDS011;25518;47.878;15.914;2023-08-06T08:53:40;2.40;;;1.00;;
39848;SDS011;25518;47.878;15.914;2023-08-06T08:56:32;1.20;;;0.73;;
39848;SDS011;25518;47.878;15.914;2023-08-06T08:59:22;1.65;;;1.00;;
39848;SDS011;25518;47.878;15.914;2023-08-06T09:02:12;3.13;;;1.48;;
39848;SDS011;25518;47.878;15.914;2023-08-06T09:05:03;2.72;;;1.23;;
39848;SDS011;25518;47.878;15.914;2023-08-06T09:07:55;2.03;;;1.20;;
39848;SDS011;25518;47.878;15.914;2023-08-06T09:10:51;2.30;;;1.30;;
39848;SDS011;25518;47.878;15.914;2023-08-06T09:13:41;2.22;;;0.90;;
39848;SDS011;25518;47.878;15.914;2023-08-06T09:16:31;1.97;;;1.07;;
39848;SDS011;25518;47.878;15.914;2023-08-06T09:19:21;1.48;;;0.90;;
39848;SDS011;25518;47.878;15.914;2023-08-06T09:22:11;1.33;;;0.88;;
39848;SDS011;25518;47.878;15.914;2023-08-06T09:25:02;2.03;;;1.00;;
39848;SDS011;25518;47.878;15.914;2023-08-06T09:27:58;3.30;;;1.20;;
39848;SDS011;25518;47.878;15.914;2023-08-06T09:30:47;1.83;;;0.90;;
39848;SDS011;25518;47.878;15.914;2023-08-06T09:33:37;1.60;;;1.10;;
39848;SDS011;25518;47.878;15.914;2023-08-06T09:36:27;2.27;;;1.07;;
39848;SDS011;25518;47.878;15.914;2023-08-06T09:39:17;1.73;;;0.90;;
39848;SDS011;25518;47.878;15.914;2023-08-06T09:42:07;1.58;;;0.88;;
39848;SDS011;25518;47.878;15.914;2023-08-06T09:45:05;2.00;;;1.00;;
39848;SDS011;25518;47.878;15.914;2023-08-06T09:47:55;3.78;;;1.20;;
39848;SDS011;25518;47.878;15.914;2023-08-06T09:50:46;1.88;;;1.10;;
39848;SDS011;25518;47.878;15.914;2023-08-06T09:53:37;2.50;;;0.90;;
39848;SDS011;25518;47.878;15.914;2023-08-06T09:56:29;1.85;;;1.08;;
39848;SDS011;25518;47.878;15.914;2023-08-06T09:59:26;1.58;;;0.90;;
39848;SDS011;25518;47.878;15.914;2023-08-06T10:02:16;3.33;;;1.50;;
39848;SDS011;25518;47.878;15.914;2023-08-06T10:05:09;1.77;;;0.83;;
39848;SDS011;25518;47.878;15.914;2023-08-06T10:07:59;2.03;;;0.90;;
39848;SDS011;25518;47.878;15.914;2023-08-06T10:10:51;2.92;;;1.10;;
39848;SDS011;25518;47.878;15.914;2023-08-06T10:13:41;3.30;;;1.40;;
39848;SDS011;25518;47.878;15.914;2023-08-06T10:16:31;4.18;;;1.63;;
39848;SDS011;25518;47.878;15.914;2023-08-06T10:19:22;1.58;;;0.75;;
39848;SDS011;25518;47.878;15.914;2023-08-06T10:22:13;1.50;;;0.90;;
39848;SDS011;25518;47.878;15.914;2023-08-06T10:25:05;2.45;;;0.80;;
39848;SDS011;25518;47.878;15.914;2023-08-06T10:27:56;1.33;;;0.70;;
39848;SDS011;25518;47.878;15.914;2023-08-06T10:30:46;2.37;;;1.00;;
39848;SDS011;25518;47.878;15.914;2023-08-06T10:33:40;2.45;;;1.10;;
39848;SDS011;25518;47.878;15.914;2023-08-06T10:36:30;2.17;;;0.90;;
39848;SDS011;25518;47.878;15.914;2023-08-06T10:39:22;1.85;;;0.63;;
39848;SDS011;25518;47.878;15.914;2023-08-06T10:42:27;0.95;;;0.70;;
39848;SDS011;25518;47.878;15.914;2023-08-06T10:45:18;3.53;;;0.80;;
39848;SDS011;25518;47.878;15.914;2023-08-06T10:48:08;1.05;;;0.63;;
39848;SDS011;25518;47.878;15.914;2023-08-06T10:50:59;1.40;;;0.82;;
39848;SDS011;25518;47.878;15.914;2023-08-06T10:53:51;1.75;;;0.60;;
39848;SDS011;25518;47.878;15.914;2023-08-06T10:56:40;1.95;;;0.80;;
39848;SDS011;25518;47.878;15.914;2023-08-06T10:59:31;2.00;;;0.73;;
39848;SDS011;25518;47.878;15.914;2023-08-06T11:02:22;1.98;;;0.70;;
39848;SDS011;25518;47.878;15.914;2023-08-06T11:05:12;1.27;;;0.75;;
39848;SDS011;25518;47.878;15.914;2023-08-06T11:08:01;1.83;;;0.90;;
39848;SDS011;25518;47.878;15.914;2023-08-06T11:10:50;1.65;;;0.80;;
39848;SDS011;25518;47.878;15.914;2023-08-06T11:13:41;1.60;;;0.73;;
39848;SDS011;25518;47.878;15.914;2023-08-06T11:16:33;2.30;;;0.95;;
39848;SDS011;25518;47.878;15.914;2023-08-06T11:19:22;1.55;;;0.82;;
39848;SDS011;25518;47.878;15.914;2023-08-06T11:22:14;1.50;;;0.73;;
39848;SDS011;25518;47.878;15.914;2023-08-06T11:25:04;2.03;;;1.00;;
39848;SDS011;25518;47.878;15.914;2023-08-06T11:27:55;1.50;;;0.70;;
39848;SDS011;25518;47.878;15.914;2023-08-06T11:30:45;2.58;;;1.33;;
39848;SDS011;25518;47.878;15.914;2023-08-06T11:33:35;1.83;;;0.90;;
39848;SDS011;25518;47.878;15.914;2023-08-06T11:36:33;1.85;;;0.80;;
39848;SDS011;25518;47.878;15.914;2023-08-06T11:39:23;2.97;;;1.20;;
39848;SDS011;25518;47.878;15.914;2023-08-06T11:42:13;1.98;;;1.08;;
39848;SDS011;25518;47.878;15.914;2023-08-06T11:45:03;2.42;;;1.00;;
39848;SDS011;25518;47.878;15.914;2023-08-06T11:47:54;2.25;;;1.05;;
39848;SDS011;25518;47.878;15.914;2023-08-06T11:50:43;2.50;;;1.00;;
39848;SDS011;25518;47.878;15.914;2023-08-06T11:53:33;2.13;;;1.00;;
39848;SDS011;25518;47.878;15.914;2023-08-06T11:56:24;2.40;;;0.98;;
39848;SDS011;25518;47.878;15.914;2023-08-06T11:59:15;2.95;;;1.00;;
39848;SDS011;25518;47.878;15.914;2023-08-06T12:02:04;1.60;;;0.70;;
39848;SDS011;25518;47.878;15.914;2023-08-06T12:05:01;4.95;;;0.82;;
39848;SDS011;25518;47.878;15.914;2023-08-06T12:07:54;1.70;;;0.80;;
39848;SDS011;25518;47.878;15.914;2023-08-06T12:10:45;2.35;;;1.00;;
39848;SDS011;25518;47.878;15.914;2023-08-06T12:13:35;1.50;;;0.77;;
39848;SDS011;25518;47.878;15.914;2023-08-06T12:16:25;2.45;;;1.00;;
39848;SDS011;25518;47.878;15.914;2023-08-06T12:19:15;1.87;;;0.70;;
39848;SDS011;25518;47.878;15.914;2023-08-06T12:22:04;2.38;;;0.80;;
39848;SDS011;25518;47.878;15.914;2023-08-06T12:24:54;1.77;;;0.75;;
39848;SDS011;25518;47.878;15.914;2023-08-06T12:27:44;1.77;;;0.80;;
39848;SDS011;25518;47.878;15.914;2023-08-06T12:30:35;2.00;;;0.80;;
39848;SDS011;25518;47.878;15.914;2023-08-06T12:33:25;3.15;;;0.85;;
39848;SDS011;25518;47.878;15.914;2023-08-06T12:36:14;2.22;;;0.68;;
39848;SDS011;25518;47.878;15.914;2023-08-06T12:39:04;1.88;;;0.70;;
39848;SDS011;25518;47.878;15.914;2023-08-06T12:41:54;3.38;;;1.02;;
39848;SDS011;25518;47.878;15.914;2023-08-06T12:44:46;1.40;;;0.65;;
39848;SDS011;25518;47.878;15.914;2023-08-06T12:47:37;1.10;;;0.60;;
39848;SDS011;25518;47.878;15.914;2023-08-06T12:50:27;1.48;;;0.70;;
39848;SDS011;25518;47.878;15.914;2023-08-06T12:53:17;2.70;;;0.80;;
39848;SDS011;25518;47.878;15.914;2023-08-06T12:56:06;1.27;;;0.70;;
39848;SDS011;25518;47.878;15.914;2023-08-06T12:58:56;1.70;;;0.70;;
39848;SDS011;25518;47.878;15.914;2023-08-06T13:01:46;1.63;;;0.60;;
39848;SDS011;25518;47.878;15.914;2023-08-06T13:04:37;1.73;;;0.75;;
39848;SDS011;25518;47.878;15.914;2023-08-06T13:07:26;2.63;;;1.20;;
39848;SDS011;25518;47.878;15.914;2023-08-06T13:10:16;2.95;;;1.00;;
39848;SDS011;25518;47.878;15.914;2023-08-06T13:13:05;1.48;;;0.60;;
39848;SDS011;25518;47.878;15.914;2023-08-06T13:15:55;1.97;;;0.57;;
39848;SDS011;25518;47.878;15.914;2023-08-06T13:18:45;3.60;;;1.08;;
39848;SDS011;25518;47.878;15.914;2023-08-06T13:21:35;1.50;;;0.70;;
39848;SDS011;25518;47.878;15.914;2023-08-06T13:24:49;1.20;;;0.63;;
39848;SDS011;25518;47.878;15.914;2023-08-06T13:27:39;1.00;;;0.45;;
39848;SDS011;25518;47.878;15.914;2023-08-06T13:30:29;0.82;;;0.50;;
39848;SDS011;25518;47.878;15.914;2023-08-06T13:33:19;2.10;;;0.60;;
39848;SDS011;25518;47.878;15.914;2023-08-06T13:36:09;1.02;;;0.40;;
39848;SDS011;25518;47.878;15.914;2023-08-06T13:38:58;1.00;;;0.50;;
39848;SDS011;25518;47.878;15.914;2023-08-06T13:41:48;1.95;;;0.55;;
39848;SDS011;25518;47.878;15.914;2023-08-06T13:44:37;0.77;;;0.50;;
39848;SDS011;25518;47.878;15.914;2023-08-06T13:47:27;0.97;;;0.40;;
39848;SDS011;25518;47.878;15.914;2023-08-06T13:50:17;0.50;;;0.40;;
39848;SDS011;25518;47.878;15.914;2023-08-06T13:53:07;1.58;;;0.50;;
39848;SDS011;25518;47.878;15.914;2023-08-06T13:55:57;1.08;;;0.57;;
39848;SDS011;25518;47.878;15.914;2023-08-06T13:58:46;1.85;;;0.50;;
39848;SDS011;25518;47.878;15.914;2023-08-06T14:01:36;0.70;;;0.43;;
39848;SDS011;25518;47.878;15.914;2023-08-06T14:04:26;1.80;;;0.40;;
39848;SDS011;25518;47.878;15.914;2023-08-06T14:07:15;2.20;;;0.70;;
39848;SDS011;25518;47.878;15.914;2023-08-06T14:10:05;1.63;;;0.50;;
39848;SDS011;25518;47.878;15.914;2023-08-06T14:12:58;1.23;;;0.63;;
39848;SDS011;25518;47.878;15.914;2023-08-06T14:15:47;0.85;;;0.65;;
39848;SDS011;25518;47.878;15.914;2023-08-06T14:18:37;1.63;;;0.50;;
39848;SDS011;25518;47.878;15.914;2023-08-06T14:21:27;0.43;;;0.20;;
39848;SDS011;25518;47.878;15.914;2023-08-06T14:24:16;0.57;;;0.20;;
39848;SDS011;25518;47.878;15.914;2023-08-06T14:27:06;0.60;;;0.30;;
39848;SDS011;25518;47.878;15.914;2023-08-06T14:29:56;0.98;;;0.30;;
39848;SDS011;25518;47.878;15.914;2023-08-06T14:32:45;0.50;;;0.30;;
39848;SDS011;25518;47.878;15.914;2023-08-06T14:35:35;0.55;;;0.10;;
39848;SDS011;25518;47.878;15.914;2023-08-06T14:38:25;0.20;;;0.20;;
39848;SDS011;25518;47.878;15.914;2023-08-06T14:41:14;0.20;;;0.17;;
39848;SDS011;25518;47.878;15.914;2023-08-06T14:44:04;0.40;;;0.20;;
39848;SDS011;25518;47.878;15.914;2023-08-06T14:46:54;0.70;;;0.23;;
39848;SDS011;25518;47.878;15.914;2023-08-06T14:49:43;0.68;;;0.50;;
39848;SDS011;25518;47.878;15.914;2023-08-06T14:52:34;0.60;;;0.25;;
39848;SDS011;25518;47.878;15.914;2023-08-06T14:55:25;0.80;;;0.10;;
39848;SDS011;25518;47.878;15.914;2023-08-06T14:58:15;0.52;;;0.10;;
39848;SDS011;25518;47.878;15.914;2023-08-06T15:01:04;0.25;;;0.17;;
39848;SDS011;25518;47.878;15.914;2023-08-06T15:03:53;0.40;;;0.10;;
39848;SDS011;25518;47.878;15.914;2023-08-06T15:06:43;0.00;;;0.00;;
39848;SDS011;25518;47.878;15.914;2023-08-06T15:09:33;0.10;;;0.10;;
39848;SDS011;25518;47.878;15.914;2023-08-06T15:12:23;0.40;;;0.20;;
39848;SDS011;25518;47.878;15.914;2023-08-06T15:15:12;0.00;;;0.00;;
39848;SDS011;25518;47.878;15.914;2023-08-06T15:18:02;0.77;;;0.30;;
39848;SDS011;25518;47.878;15.914;2023-08-06T15:20:52;1.08;;;0.20;;
39848;SDS011;25518;47.878;15.914;2023-08-06T15:23:42;0.90;;;0.20;;
39848;SDS011;25518;47.878;15.914;2023-08-06T15:26:31;0.88;;;0.22;;
39848;SDS011;25518;47.878;15.914;2023-08-06T15:29:22;0.50;;;0.00;;
39848;SDS011;25518;47.878;15.914;2023-08-06T15:32:12;0.10;;;0.10;;
39848;SDS011;25518;47.878;15.914;2023-08-06T15:35:02;0.70;;;0.03;;
39848;SDS011;25518;47.878;15.914;2023-08-06T15:37:53;0.43;;;0.10;;
39848;SDS011;25518;47.878;15.914;2023-08-06T15:40:43;1.00;;;0.20;;
39848;SDS011;25518;47.878;15.914;2023-08-06T15:43:34;0.30;;;0.10;;
39848;SDS011;25518;47.878;15.914;2023-08-06T15:46:24;0.40;;;0.10;;
39848;SDS011;25518;47.878;15.914;2023-08-06T15:49:13;0.60;;;0.10;;
39848;SDS011;25518;47.878;15.914;2023-08-06T15:52:03;0.20;;;0.20;;
39848;SDS011;25518;47.878;15.914;2023-08-06T15:54:53;0.30;;;0.10;;
39848;SDS011;25518;47.878;15.914;2023-08-06T15:57:43;0.10;;;0.10;;
39848;SDS011;25518;47.878;15.914;2023-08-06T16:00:33;0.30;;;0.10;;
39848;SDS011;25518;47.878;15.914;2023-08-06T16:03:23;0.10;;;0.05;;
39848;SDS011;25518;47.878;15.914;2023-08-06T16:06:12;0.70;;;0.17;;
39848;SDS011;25518;47.878;15.914;2023-08-06T16:09:02;1.90;;;0.20;;
39848;SDS011;25518;47.878;15.914;2023-08-06T16:11:52;0.50;;;0.10;;
39848;SDS011;25518;47.878;15.914;2023-08-06T16:14:42;0.23;;;0.10;;
39848;SDS011;25518;47.878;15.914;2023-08-06T16:17:31;0.30;;;0.10;;
39848;SDS011;25518;47.878;15.914;2023-08-06T16:20:21;1.00;;;0.10;;
39848;SDS011;25518;47.878;15.914;2023-08-06T16:23:11;0.23;;;0.10;;
39848;SDS011;25518;47.878;15.914;2023-08-06T16:26:00;0.80;;;0.20;;
39848;SDS011;25518;47.878;15.914;2023-08-06T16:28:50;0.10;;;0.10;;
39848;SDS011;25518;47.878;15.914;2023-08-06T16:31:39;0.13;;;0.03;;
39848;SDS011;25518;47.878;15.914;2023-08-06T16:34:29;0.10;;;0.00;;
39848;SDS011;25518;47.878;15.914;2023-08-06T16:37:20;2.15;;;0.20;;
39848;SDS011;25518;47.878;15.914;2023-08-06T16:40:10;0.10;;;0.10;;
39848;SDS011;25518;47.878;15.914;2023-08-06T16:42:59;0.20;;;0.00;;
39848;SDS011;25518;47.878;15.914;2023-08-06T16:45:51;0.28;;;0.13;;
39848;SDS011;25518;47.878;15.914;2023-08-06T16:48:43;0.20;;;0.00;;
39848;SDS011;25518;47.878;15.914;2023-08-06T16:51:33;0.10;;;0.00;;
39848;SDS011;25518;47.878;15.914;2023-08-06T16:54:22;0.80;;;0.20;;
39848;SDS011;25518;47.878;15.914;2023-08-06T16:57:12;0.00;;;0.00;;
39848;SDS011;25518;47.878;15.914;2023-08-06T17:00:02;0.10;;;0.00;;
39848;SDS011;25518;47.878;15.914;2023-08-06T17:02:52;0.10;;;0.00;;
39848;SDS011;25518;47.878;15.914;2023-08-06T17:05:41;0.40;;;0.10;;
39848;SDS011;25518;47.878;15.914;2023-08-06T17:08:32;0.20;;;0.00;;
39848;SDS011;25518;47.878;15.914;2023-08-06T17:11:23;0.20;;;0.10;;
39848;SDS011;25518;47.878;15.914;2023-08-06T17:14:13;0.10;;;0.00;;